Latest Weather Observations for Redesdale

IDV60801

Issued at 8:35 pm EST Wednesday 16 April 2014 (issued every 30 minutes, with the page automatically refreshed every 10 minutes)

About weather observations | Map of weather stations | Latest weather observations for VIC | Other Formats
Station Details ID: 088051 Name: REDESDALE Lat: -37.02 Lon: 144.52 Height: 290.0 m
Data from the previous 72 hours. | See also: Recent months at Redesdale
Date/Time
EST
Temp
°C
App
Temp
°C
Dew
Point
Rel
Hum
%
Delta-T
°C
Wind Press
QNH
hPa
Press
MSL
hPa
Rain
since 9 am
mm
Dir
 
Spd
km/h
Gust
km/h
Spd
kts
Gust
kts
16/08:30pm 10.3 8.6 8.2 87 1.0 SSW 7 7 4 4 - - 0.0
16/08:00pm 10.7 9.0 8.3 85 1.2 S 7 7 4 4 - - 0.0
16/07:30pm 11.6 10.1 8.5 81 1.6 S 6 7 3 4 - - 0.0
16/07:00pm 12.9 11.9 9.0 77 2.0 SW 4 4 2 2 - - 0.0
16/06:30pm 13.9 13.2 8.5 70 2.8 WNW 2 4 1 2 - - 0.0
16/06:00pm 15.8 15.1 8.5 62 3.8 WNW 2 4 1 2 - - 0.0
16/05:30pm 17.2 16.1 8.6 57 4.5 W 4 6 2 3 - - 0.0
16/05:00pm 18.8 17.8 9.0 53 5.2 W 4 6 2 3 - - 0.0
16/04:30pm 19.0 17.3 8.4 50 5.6 WNW 7 13 4 7 - - 0.0
16/04:00pm 18.9 16.8 8.3 50 5.6 NW 9 15 5 8 - - 0.0
16/03:30pm 19.5 17.3 7.9 47 6.1 NW 9 17 5 9 - - 0.0
16/03:00pm 20.6 19.1 8.3 45 6.5 WNW 6 15 3 8 - - 0.0
16/02:30pm 19.6 17.8 8.0 47 6.1 NNW 7 13 4 7 - - 0.0
16/02:00pm 19.3 17.1 7.7 47 6.0 NNW 9 15 5 8 - - 0.0
16/01:30pm 19.9 18.2 8.3 47 6.1 NW 7 13 4 7 - - 0.0
16/01:00pm 19.4 16.9 8.4 49 5.8 NNW 11 19 6 10 - - 0.0
16/12:30pm 18.6 17.2 9.4 55 4.9 WNW 7 13 4 7 - - 0.0
16/12:00pm 18.8 17.1 9.8 56 4.8 NNW 9 20 5 11 - - 0.0
16/11:30am 18.5 17.2 10.1 58 4.5 NNE 7 13 4 7 - - 0.0
16/11:00am 17.2 15.7 10.6 65 3.6 NNE 9 13 5 7 - - 0.0
16/10:30am 16.7 15.4 10.1 65 3.5 N 7 13 4 7 - - 0.0
16/10:00am 16.2 15.0 10.3 68 3.2 NE 7 9 4 5 - - 0.0
16/09:30am 16.0 15.8 10.3 69 3.0 WNW 2 6 1 3 - - 0.0
16/09:00am 13.4 13.6 10.6 83 1.5 CALM 0 0 0 0 - - 0.0
16/08:30am 12.6 12.5 10.8 89 1.0 SSW 2 6 1 3 - - 0.0
16/08:00am 10.0 9.1 9.4 96 0.3 SSW 4 6 2 3 - - 0.0
16/07:30am 8.1 6.4 7.7 97 0.2 SSW 6 7 3 4 - - 0.0
16/07:00am 7.0 4.5 6.6 97 0.2 SSW 9 11 5 6 - - 0.0
16/06:30am 6.6 4.0 6.2 97 0.2 SW 9 11 5 6 - - 0.0
16/06:00am 6.5 3.9 5.9 96 0.3 SSW 9 11 5 6 - - 0.0
16/05:30am 7.4 5.3 6.8 96 0.3 SSW 7 9 4 5 - - 0.0
16/05:00am 7.3 4.8 6.7 96 0.3 SW 9 11 5 6 - - 0.0
16/04:30am 6.9 4.3 6.2 95 0.3 SSW 9 11 5 6 - - 0.0
16/04:00am 7.9 5.5 7.1 95 0.4 SSW 9 11 5 6 - - 0.0
16/03:30am 8.7 6.1 7.9 95 0.4 SSW 11 11 6 6 - - 0.0
16/03:00am 8.8 6.6 8.0 95 0.4 SSW 9 11 5 6 - - 0.0
16/02:30am 9.0 6.5 8.1 94 0.4 SSW 11 13 6 7 - - 0.0
16/02:00am 9.3 7.8 8.4 94 0.4 S 6 7 3 4 - - 0.0
16/01:30am 9.9 9.3 8.8 93 0.5 S 2 9 1 5 - - 0.0
16/01:00am 10.3 9.0 9.1 92 0.6 SW 6 11 3 6 - - 0.0
16/12:30am 10.9 8.8 9.7 92 0.6 SSW 11 15 6 8 - - 0.0
16/12:00am 11.6 8.4 10.0 90 0.8 S 17 20 9 11 - - 0.0
 
Date/Time
EST
Temp
°C
App
Temp
°C
Dew
Point
Rel
Hum
%
Delta-T
°C
Wind Press
QNH
hPa
Press
MSL
hPa
Rain
since 9 am
mm
Dir
 
Spd
km/h
Gust
km/h
Spd
kts
Gust
kts
15/11:30pm 11.6 8.8 10.0 90 0.8 S 15 20 8 11 - - 0.0
15/11:00pm 11.7 8.9 10.1 90 0.8 S 15 19 8 10 - - 0.0
15/10:30pm 11.7 8.9 9.9 89 0.9 S 15 19 8 10 - - 0.0
15/10:00pm 12.0 8.8 10.1 88 1.0 S 17 22 9 12 - - 0.0
15/09:30pm 12.3 9.2 10.2 87 1.1 S 17 22 9 12 - - 0.0
15/09:00pm 12.4 8.9 10.1 86 1.2 S 19 24 10 13 - - 0.0
15/08:30pm 12.3 9.5 10.0 86 1.2 S 15 20 8 11 - - 0.0
15/08:00pm 12.1 9.2 9.7 85 1.2 S 15 20 8 11 - - 0.0
15/07:30pm 12.4 9.4 9.4 82 1.5 S 15 19 8 10 - - 0.0
15/07:00pm 13.5 10.6 9.7 78 2.0 S 15 20 8 11 - - 0.0
15/06:30pm 13.5 10.9 9.2 75 2.2 S 13 17 7 9 - - 0.0
15/06:00pm 14.4 12.0 8.8 69 2.9 S 11 17 6 9 - - 0.0
15/05:30pm 16.1 13.4 8.8 62 3.8 S 13 19 7 10 - - 0.0
15/05:00pm 17.5 14.7 8.6 56 4.6 SSE 13 20 7 11 - - 0.0
15/04:30pm 18.0 14.4 8.3 53 5.1 SSE 17 24 9 13 - - 0.0
15/04:00pm 18.7 14.7 8.1 50 5.5 SSE 19 28 10 15 - - 0.0
15/03:30pm 19.5 16.5 9.1 51 5.5 S 15 26 8 14 - - 0.0
15/03:00pm 18.5 15.4 7.3 48 5.7 SSE 13 22 7 12 - - 0.0
15/02:30pm 19.6 16.9 7.4 45 6.3 SSE 11 19 6 10 - - 0.0
15/02:00pm 19.4 17.5 9.0 51 5.5 S 9 19 5 10 - - 0.0
15/01:30pm 19.1 17.1 8.7 51 5.5 SE 9 17 5 9 - - 0.0
15/01:00pm 19.4 16.6 8.7 50 5.7 SE 13 20 7 11 - - 0.0
15/12:30pm 18.9 16.0 8.0 49 5.7 ESE 13 20 7 11 - - 0.0
15/12:00pm 18.4 15.4 7.8 50 5.5 SE 13 20 7 11 - - 0.0
15/11:30am 17.9 15.0 8.2 53 5.0 S 13 20 7 11 - - 0.0
15/11:00am 17.7 15.2 8.3 54 4.9 SE 11 32 6 17 - - 0.0
15/10:30am 17.1 14.6 8.0 55 4.7 SSE 11 17 6 9 - - 0.0
15/10:00am 17.0 14.5 8.4 57 4.5 SE 11 19 6 10 - - 0.0
15/09:30am 16.3 13.8 8.0 58 4.3 SE 11 19 6 10 - - 0.0
15/09:00am 15.4 13.7 8.2 62 3.7 ESE 7 11 4 6 - - 0.0
15/08:30am 14.1 12.7 8.7 70 2.8 NE 6 9 3 5 - - 0.0
15/08:00am 11.6 10.8 8.3 80 1.6 WSW 2 4 1 2 - - 0.0
15/07:30am 8.5 6.8 6.0 84 1.2 SSW 4 6 2 3 - - 0.0
15/07:00am 7.7 5.9 5.2 84 1.1 SSW 4 6 2 3 - - 0.0
15/06:30am 9.5 6.5 6.0 79 1.6 S 11 15 6 8 - - 0.0
15/06:00am 9.7 6.4 6.6 81 1.5 SSE 13 17 7 9 - - 0.0
15/05:30am 9.0 6.0 5.9 81 1.4 S 11 15 6 8 - - 0.0
15/05:00am 8.5 6.1 5.3 80 1.5 S 7 7 4 4 - - 0.0
15/04:30am 8.8 6.4 5.2 78 1.6 SSE 7 9 4 5 - - 0.0
15/04:00am 8.4 5.9 5.0 79 1.5 SSE 7 9 4 5 - - 0.0
15/03:30am 8.8 6.1 5.5 80 1.5 SSE 9 13 5 7 - - 0.0
15/03:00am 9.0 6.0 6.1 82 1.4 S 11 11 6 6 - - 0.0
15/02:30am 7.7 5.1 6.3 91 0.6 S 9 11 5 6 - - 0.0
15/02:00am 8.1 5.7 7.0 93 0.5 S 9 11 5 6 - - 0.0
15/01:30am 7.6 5.4 6.2 91 0.6 S 7 9 4 5 - - 0.0
15/01:00am 8.7 5.9 7.0 89 0.8 S 11 13 6 7 - - 0.0
15/12:30am 10.3 7.4 8.1 86 1.1 S 13 15 7 8 - - 0.0
15/12:00am 10.2 6.9 8.0 86 1.1 SSE 15 17 8 9 - - 0.0
 
Date/Time
EST
Temp
°C
App
Temp
°C
Dew
Point
Rel
Hum
%
Delta-T
°C
Wind Press
QNH
hPa
Press
MSL
hPa
Rain
since 9 am
mm
Dir
 
Spd
km/h
Gust
km/h
Spd
kts
Gust
kts
14/11:30pm 11.0 7.7 8.1 82 1.4 SSE 15 20 8 11 - - 0.0
14/11:00pm 11.9 6.2 8.2 78 1.8 S 28 37 15 20 - - 0.0
14/10:30pm 12.3 7.7 8.0 75 2.1 S 22 32 12 17 - - 0.0
14/10:00pm 12.8 7.3 7.7 71 2.5 S 26 35 14 19 - - 0.0
14/09:30pm 13.1 8.0 7.8 70 2.6 S 24 33 13 18 - - 0.0
14/09:00pm 13.0 8.7 7.9 71 2.6 S 20 32 11 17 - - 0.0
14/08:30pm 12.4 9.5 8.1 75 2.2 S 13 22 7 12 - - 0.0
14/08:00pm 12.6 9.4 8.3 75 2.2 S 15 22 8 12 - - 0.0
14/07:30pm 12.8 10.0 8.5 75 2.2 S 13 20 7 11 - - 0.0
14/07:00pm 12.7 10.5 8.0 73 2.4 S 9 17 5 9 - - 0.0
14/06:30pm 13.3 10.6 7.3 67 3.0 S 11 17 6 9 - - 0.0
14/06:00pm 14.2 11.1 7.3 63 3.4 S 13 19 7 10 - - 0.0
14/05:30pm 15.4 11.9 7.4 59 4.0 S 15 24 8 13 - - 0.0
14/05:00pm 16.8 12.4 7.2 53 4.9 SSE 20 30 11 16 - - 0.0
14/04:30pm 17.7 13.0 7.7 52 5.1 S 22 33 12 18 - - 0.0
14/04:00pm 18.7 14.4 6.9 46 6.0 S 19 26 10 14 - - 0.0
14/03:30pm 19.1 14.2 6.9 45 6.2 SSE 22 30 12 16 - - 0.0
14/03:00pm 19.6 15.3 7.7 46 6.2 SE 20 32 11 17 - - 0.0
14/02:30pm 19.9 15.7 7.6 45 6.4 SE 19 28 10 15 - - 0.0
14/02:00pm 19.3 15.5 7.7 47 6.0 SSE 17 28 9 15 - - 0.0
14/01:30pm 19.5 16.7 8.5 49 5.8 SE 13 26 7 14 - - 0.0
14/01:00pm 19.5 16.4 8.8 50 5.7 SE 15 22 8 12 - - 0.0
14/12:30pm 18.7 15.8 9.5 55 4.9 SSE 15 30 8 16 - - 0.0
14/12:00pm 18.5 15.9 9.3 55 4.9 SE 13 20 7 11 - - 0.0
14/11:30am 17.9 14.1 9.0 56 4.7 S 19 26 10 14 - - 0.0
14/11:00am 16.9 12.7 8.3 57 4.4 SSE 20 28 11 15 - - 0.0
14/10:30am 16.5 11.8 9.2 62 3.8 SSE 24 33 13 18 - - 0.0
14/10:00am 15.9 11.5 8.9 63 3.6 SSE 22 35 12 19 - - 0.0
14/09:30am 14.9 9.2 8.4 65 3.3 SSE 28 35 15 19 - - 0.0
14/09:00am 14.5 10.5 8.9 69 2.9 SSE 20 30 11 16 - - 0.0
14/08:30am 13.6 10.4 8.4 71 2.6 S 15 22 8 12 - - 0.0
14/08:00am 12.1 9.3 8.6 79 1.8 SSE 13 22 7 12 - - 0.0
14/07:30am 8.3 7.2 6.9 91 0.7 S 2 6 1 3 - - 0.0
14/07:00am 8.1 6.7 7.3 95 0.4 ESE 4 7 2 4 - - 0.0
14/06:30am 6.0 4.6 5.3 95 0.3 SW 2 4 1 2 - - 0.0
14/06:00am 7.1 5.5 6.2 94 0.4 SSW 4 6 2 3 - - 0.0
14/05:30am 7.5 5.9 6.3 92 0.6 SW 4 4 2 2 - - 0.0
14/05:00am 8.2 6.4 7.0 92 0.6 SW 6 7 3 4 - - 0.0
14/04:30am 8.2 6.7 6.8 91 0.7 SSW 4 6 2 3 - - 0.0
14/04:00am 9.3 7.9 7.4 88 0.9 SSW 4 6 2 3 - - 0.0
14/03:30am 9.8 8.1 7.6 86 1.1 S 6 7 3 4 - - 0.0
14/03:00am 10.2 7.6 7.8 85 1.2 S 11 13 6 7 - - 0.0
14/02:30am 10.6 7.7 8.2 85 1.2 S 13 15 7 8 - - 0.0
14/02:00am 10.6 7.8 8.4 86 1.1 S 13 17 7 9 - - 0.0
14/01:30am 11.2 8.1 8.9 86 1.2 SSE 15 22 8 12 - - 0.0
14/01:00am 10.9 8.1 8.7 86 1.1 S 13 20 7 11 - - 0.0
14/12:30am 11.6 8.2 9.2 85 1.2 S 17 22 9 12 - - 0.0
14/12:00am 11.6 8.2 9.0 84 1.3 S 17 24 9 13 - - 0.0
 
Date/Time
EST
Temp
°C
App
Temp
°C
Dew
Point
Rel
Hum
%
Delta-T
°C
Wind Press
QNH
hPa
Press
MSL
hPa
Rain
since 9 am
mm
Dir
 
Spd
km/h
Gust
km/h
Spd
kts
Gust
kts
13/11:30pm 12.1 8.3 9.1 82 1.5 S 19 32 10 17 - - 0.0
13/11:00pm 12.6 8.3 9.2 80 1.7 S 22 32 12 17 - - 0.0
13/10:30pm 12.9 8.6 9.4 79 1.8 S 22 32 12 17 - - 0.0
13/10:00pm 12.8 8.5 9.3 79 1.8 S 22 30 12 16 - - 0.0
13/09:30pm 13.0 8.7 9.4 79 1.9 S 22 32 12 17 - - 0.0
13/09:00pm 12.9 9.0 9.5 80 1.8 S 20 28 11 15 - - 0.0

Other Formats:

Comma delimited format used in spreadsheet applications
http://www.bom.gov.au/fwo/IDV60801/IDV60801.94859.axf

JavaScript Object Notation format (JSON) in row-major order
http://www.bom.gov.au/fwo/IDV60801/IDV60801.94859.json